createdAt,value
2022-12-12T00:00:24.039Z,2.40
2022-12-12T00:01:24.022Z,2.41
2022-12-12T00:02:24.383Z,2.40
2022-12-12T00:03:24.053Z,2.40
2022-12-12T00:04:23.993Z,2.41
2022-12-12T00:05:23.995Z,2.41
2022-12-12T00:06:23.971Z,2.41
2022-12-12T00:07:23.915Z,2.40
2022-12-12T00:08:24.572Z,2.44
2022-12-12T00:09:23.924Z,2.41
2022-12-12T00:10:23.894Z,2.40
2022-12-12T00:11:23.875Z,2.44
2022-12-12T00:12:23.885Z,2.41
2022-12-12T00:13:23.885Z,2.44
2022-12-12T00:14:23.856Z,2.41
2022-12-12T00:15:23.829Z,2.44
2022-12-12T00:16:23.935Z,2.41
2022-12-12T00:17:23.807Z,2.45
2022-12-12T00:18:23.811Z,2.44
2022-12-12T00:19:23.851Z,2.44
2022-12-12T00:20:23.811Z,2.40
2022-12-12T00:21:23.773Z,2.41
2022-12-12T00:22:23.767Z,2.44
2022-12-12T00:23:23.741Z,2.45
2022-12-12T00:24:23.763Z,2.45
2022-12-12T00:25:23.738Z,2.48
2022-12-12T00:26:23.721Z,2.46
2022-12-12T00:27:23.688Z,2.46
2022-12-12T00:28:23.735Z,2.46
2022-12-12T00:29:23.695Z,2.45
2022-12-12T00:30:23.668Z,2.46
2022-12-12T00:31:23.684Z,2.48
2022-12-12T00:32:23.684Z,2.51
2022-12-12T00:33:23.829Z,2.51
2022-12-12T00:34:23.619Z,2.49
2022-12-12T00:35:23.630Z,2.49
2022-12-12T00:36:23.599Z,2.49
2022-12-12T00:37:23.831Z,2.49
2022-12-12T00:38:23.586Z,2.49
2022-12-12T00:39:23.548Z,2.49
2022-12-12T00:40:23.550Z,2.49
2022-12-12T00:41:23.558Z,2.49
2022-12-12T00:42:23.751Z,2.46
2022-12-12T00:43:23.541Z,2.46
2022-12-12T00:44:23.536Z,2.46
2022-12-12T00:45:23.506Z,2.46
2022-12-12T00:46:23.523Z,2.46
2022-12-12T00:47:23.710Z,2.46
2022-12-12T00:48:23.487Z,2.46
2022-12-12T00:49:23.480Z,2.46
2022-12-12T00:50:23.441Z,2.45
2022-12-12T00:51:23.437Z,2.45
2022-12-12T00:52:23.447Z,2.45
2022-12-12T00:53:23.412Z,2.44
2022-12-12T00:54:23.432Z,2.46
2022-12-12T00:55:23.597Z,2.44
2022-12-12T00:56:23.388Z,2.45
2022-12-12T00:57:23.349Z,2.45
2022-12-12T00:58:23.379Z,2.45
2022-12-12T00:59:23.357Z,2.44
2022-12-12T01:00:23.330Z,2.45
2022-12-12T01:01:23.585Z,2.44
2022-12-12T01:02:27.954Z,2.44
2022-12-12T01:03:24.299Z,2.40
2022-12-12T01:04:23.329Z,2.45
2022-12-12T01:05:23.263Z,2.44
2022-12-12T01:06:23.280Z,2.46
2022-12-12T01:07:23.232Z,2.46
2022-12-12T01:08:23.307Z,2.46
2022-12-12T01:09:23.239Z,2.46
2022-12-12T01:10:23.439Z,2.48
2022-12-12T01:11:23.193Z,2.48
2022-12-12T01:12:23.220Z,2.46
2022-12-12T01:13:23.169Z,2.48
2022-12-12T01:14:23.589Z,2.46
2022-12-12T01:15:23.161Z,2.45
2022-12-12T01:16:23.190Z,2.44
2022-12-12T01:17:23.154Z,2.44
2022-12-12T01:18:23.151Z,2.41
2022-12-12T01:19:23.122Z,2.45
2022-12-12T01:20:23.442Z,2.45
2022-12-12T01:21:23.100Z,2.44
2022-12-12T01:22:23.100Z,2.41
2022-12-12T01:23:23.074Z,2.45
2022-12-12T01:24:23.447Z,2.44
2022-12-12T01:25:23.026Z,2.40
2022-12-12T01:26:23.074Z,2.38
2022-12-12T01:27:23.398Z,2.40
2022-12-12T01:28:23.005Z,2.40
2022-12-12T01:29:22.984Z,2.38
2022-12-12T01:30:23.012Z,2.38
2022-12-12T01:31:23.409Z,2.38
2022-12-12T01:32:22.970Z,2.37
2022-12-12T01:33:23.322Z,2.35
2022-12-12T01:34:22.962Z,2.38
2022-12-12T01:35:22.946Z,2.35
2022-12-12T01:36:22.917Z,2.37
2022-12-12T01:37:22.897Z,2.37
2022-12-12T01:38:22.896Z,2.35
2022-12-12T01:39:22.904Z,2.37
2022-12-12T01:40:22.896Z,2.38
2022-12-12T01:41:22.847Z,2.40
2022-12-12T01:42:22.881Z,2.40
2022-12-12T01:43:22.826Z,2.38
2022-12-12T01:44:22.853Z,2.38
2022-12-12T01:45:23.157Z,2.38
2022-12-12T01:46:22.880Z,2.40
2022-12-12T01:47:22.778Z,2.40
2022-12-12T01:48:22.813Z,2.38
2022-12-12T01:49:22.798Z,2.37
2022-12-12T01:50:22.758Z,2.37
2022-12-12T01:51:22.994Z,2.38
2022-12-12T01:52:22.761Z,2.35
2022-12-12T01:53:22.736Z,2.34
2022-12-12T01:54:22.744Z,2.34
2022-12-12T01:55:22.714Z,2.34
2022-12-12T01:56:22.898Z,2.31
2022-12-12T01:57:22.889Z,2.33
2022-12-12T01:58:22.702Z,2.33
2022-12-12T01:59:22.665Z,2.31
2022-12-12T02:00:22.675Z,2.27
2022-12-12T02:01:22.645Z,2.26
2022-12-12T02:02:23.192Z,2.26
2022-12-12T02:03:22.599Z,2.22
2022-12-12T02:04:22.600Z,2.20
2022-12-12T02:05:22.580Z,2.17
2022-12-12T02:06:22.770Z,2.17
2022-12-12T02:07:22.579Z,2.16
2022-12-12T02:08:22.588Z,2.15
2022-12-12T02:09:22.557Z,2.15
2022-12-12T02:10:22.790Z,2.15
2022-12-12T02:11:22.518Z,2.15
2022-12-12T02:12:22.536Z,2.13
2022-12-12T02:13:22.767Z,2.15
2022-12-12T02:14:22.488Z,2.15
2022-12-12T02:15:22.469Z,2.10
2022-12-12T02:16:22.513Z,2.08
2022-12-12T02:17:22.467Z,2.06
2022-12-12T02:18:22.450Z,2.06
2022-12-12T02:19:22.676Z,2.01
2022-12-12T02:20:22.447Z,2.02
2022-12-12T02:21:22.418Z,2.02
2022-12-12T02:22:22.401Z,2.02
2022-12-12T02:23:22.371Z,2.04
2022-12-12T02:24:25.881Z,2.08
2022-12-12T02:25:22.711Z,2.06
2022-12-12T02:26:22.354Z,2.04
2022-12-12T02:27:22.348Z,2.04
2022-12-12T02:28:22.355Z,2.02
2022-12-12T02:29:22.329Z,2.06
2022-12-12T02:30:22.539Z,2.10
2022-12-12T02:31:22.328Z,2.09
2022-12-12T02:32:22.310Z,2.06
2022-12-12T02:33:22.289Z,2.06
2022-12-12T02:34:22.288Z,2.06
2022-12-12T02:35:22.439Z,2.04
2022-12-12T02:36:22.260Z,2.04
2022-12-12T02:37:22.213Z,2.02
2022-12-12T02:38:22.239Z,2.02
2022-12-12T02:39:22.219Z,2.02
2022-12-12T02:40:22.219Z,2.02
2022-12-12T02:41:22.398Z,2.01
2022-12-12T02:42:22.198Z,1.97
2022-12-12T02:43:22.153Z,1.93
2022-12-12T02:44:22.171Z,1.94
2022-12-12T02:45:22.123Z,1.94
2022-12-12T02:46:22.395Z,1.93
2022-12-12T02:47:22.114Z,1.91
2022-12-12T02:48:22.130Z,1.91
2022-12-12T02:49:22.351Z,1.90
2022-12-12T02:50:22.109Z,1.90
2022-12-12T02:51:22.064Z,1.91
2022-12-12T02:52:22.684Z,1.91
2022-12-12T02:53:22.036Z,1.94
2022-12-12T02:54:22.062Z,1.97
2022-12-12T02:55:22.042Z,1.98
2022-12-12T02:56:22.041Z,2.01
2022-12-12T02:57:22.196Z,2.06
2022-12-12T02:58:21.995Z,2.08
2022-12-12T02:59:21.992Z,2.12
2022-12-12T03:00:21.994Z,2.15
2022-12-12T03:01:21.944Z,2.15
2022-12-12T03:02:22.643Z,2.17
2022-12-12T03:03:22.272Z,2.17
2022-12-12T03:04:21.950Z,2.19
2022-12-12T03:05:21.900Z,2.17
2022-12-12T03:06:21.899Z,2.17
2022-12-12T03:07:22.078Z,2.19
2022-12-12T03:08:21.983Z,2.20
2022-12-12T03:09:21.855Z,2.22
2022-12-12T03:10:21.855Z,2.22
2022-12-12T03:11:21.855Z,2.20
2022-12-12T03:12:22.284Z,2.20
2022-12-12T03:13:21.808Z,2.20
2022-12-12T03:14:21.833Z,2.20
2022-12-12T03:15:22.038Z,2.20
2022-12-12T03:16:21.940Z,2.22
2022-12-12T03:17:21.760Z,2.22
2022-12-12T03:18:21.793Z,2.23
2022-12-12T03:19:21.764Z,2.26
2022-12-12T03:20:21.742Z,2.26
2022-12-12T03:21:21.735Z,2.22
2022-12-12T03:22:21.745Z,2.23
2022-12-12T03:23:21.698Z,2.23
2022-12-12T03:24:21.697Z,2.23
2022-12-12T03:25:21.694Z,2.26
2022-12-12T03:26:21.894Z,2.26
2022-12-12T03:27:21.653Z,2.27
2022-12-12T03:28:21.649Z,2.28
2022-12-12T03:29:21.657Z,2.26
2022-12-12T03:30:21.639Z,2.23
2022-12-12T03:31:21.662Z,2.23
2022-12-12T03:32:22.349Z,2.23
2022-12-12T03:33:21.586Z,2.26
2022-12-12T03:34:21.613Z,2.23
2022-12-12T03:35:21.585Z,2.22
2022-12-12T03:36:21.591Z,2.19
2022-12-12T03:37:21.775Z,2.16
2022-12-12T03:38:21.565Z,2.15
2022-12-12T03:39:21.536Z,2.13
2022-12-12T03:40:21.519Z,2.12
2022-12-12T03:41:21.499Z,2.13
2022-12-12T03:42:21.490Z,2.12
2022-12-12T03:43:21.990Z,2.13
2022-12-12T03:44:21.469Z,2.13
2022-12-12T03:45:21.476Z,2.17
2022-12-12T03:46:21.467Z,2.17
2022-12-12T03:47:21.420Z,2.17
2022-12-12T03:48:21.467Z,2.19
2022-12-12T03:49:21.429Z,2.19
2022-12-12T03:50:21.426Z,2.22
2022-12-12T03:51:21.378Z,2.23
2022-12-12T03:52:21.381Z,2.26
2022-12-12T03:53:21.568Z,2.28
2022-12-12T03:54:21.578Z,2.28
2022-12-12T03:55:21.359Z,2.30
2022-12-12T03:56:21.360Z,2.30
2022-12-12T03:57:21.340Z,2.31
2022-12-12T03:58:21.322Z,2.33
2022-12-12T03:59:26.976Z,2.33
2022-12-12T04:00:22.298Z,2.28
2022-12-12T04:01:21.334Z,2.28
2022-12-12T04:02:21.290Z,2.28
2022-12-12T04:03:21.261Z,2.27
2022-12-12T04:04:21.442Z,2.28
2022-12-12T04:05:21.230Z,2.26
2022-12-12T04:06:21.241Z,2.26
2022-12-12T04:07:21.210Z,2.23
2022-12-12T04:08:21.343Z,2.23
2022-12-12T04:09:21.422Z,2.26
2022-12-12T04:10:21.164Z,2.26
2022-12-12T04:11:21.191Z,2.27
2022-12-12T04:12:21.171Z,2.28
2022-12-12T04:13:21.370Z,2.27
2022-12-12T04:14:21.124Z,2.27
2022-12-12T04:15:21.481Z,2.28
2022-12-12T04:16:21.335Z,2.26
2022-12-12T04:17:21.120Z,2.26
2022-12-12T04:18:21.083Z,2.28
2022-12-12T04:19:21.094Z,2.28
2022-12-12T04:20:21.088Z,2.28
2022-12-12T04:21:21.090Z,2.26
2022-12-12T04:22:25.888Z,2.23
2022-12-12T04:23:22.051Z,2.20
2022-12-12T04:24:21.004Z,2.20
2022-12-12T04:25:21.003Z,2.17
2022-12-12T04:26:21.302Z,2.16
2022-12-12T04:27:20.982Z,2.20
2022-12-12T04:28:20.965Z,2.20
2022-12-12T04:29:20.989Z,2.22
2022-12-12T04:30:20.934Z,2.19
2022-12-12T04:31:21.187Z,2.19
2022-12-12T04:32:20.942Z,2.20
2022-12-12T04:33:20.913Z,2.22
2022-12-12T04:34:20.921Z,2.20
2022-12-12T04:35:21.181Z,2.20
2022-12-12T04:36:20.902Z,2.20
2022-12-12T04:37:20.872Z,2.19
2022-12-12T04:38:20.848Z,2.22
2022-12-12T04:39:20.873Z,2.22
2022-12-12T04:40:21.025Z,2.23
2022-12-12T04:41:20.857Z,2.23
2022-12-12T04:42:20.823Z,2.26
2022-12-12T04:43:20.805Z,2.27
2022-12-12T04:44:20.776Z,2.30
2022-12-12T04:45:20.986Z,2.33
2022-12-12T04:46:21.040Z,2.31
2022-12-12T04:47:20.755Z,2.31
2022-12-12T04:48:20.787Z,2.33
2022-12-12T04:49:20.753Z,2.31
2022-12-12T04:50:20.870Z,2.31
2022-12-12T04:51:20.743Z,2.33
2022-12-12T04:52:21.077Z,2.31
2022-12-12T04:53:20.686Z,2.31
2022-12-12T04:54:20.660Z,2.31
2022-12-12T04:55:20.665Z,2.31
2022-12-12T04:56:20.664Z,2.33
2022-12-12T04:57:20.879Z,2.31
2022-12-12T04:58:20.617Z,2.30
2022-12-12T04:59:20.996Z,2.28
2022-12-12T05:00:20.615Z,2.28
2022-12-12T05:01:20.643Z,2.28
2022-12-12T05:02:20.643Z,2.28
2022-12-12T05:03:20.602Z,2.27
2022-12-12T05:04:20.786Z,2.27
2022-12-12T05:05:20.605Z,2.26
2022-12-12T05:06:20.547Z,2.27
2022-12-12T05:07:20.547Z,2.23
2022-12-12T05:08:20.541Z,2.20
2022-12-12T05:09:20.545Z,2.22
2022-12-12T05:10:20.789Z,2.20
2022-12-12T05:11:20.514Z,2.19
2022-12-12T05:12:20.459Z,2.17
2022-12-12T05:13:20.460Z,2.16
2022-12-12T05:14:20.481Z,2.15
2022-12-12T05:15:20.685Z,2.15
2022-12-12T05:16:20.436Z,2.16
2022-12-12T05:17:20.446Z,2.15
2022-12-12T05:18:20.629Z,2.13
2022-12-12T05:19:20.390Z,2.12
2022-12-12T05:20:20.378Z,2.13
2022-12-12T05:21:20.379Z,2.13
2022-12-12T05:22:20.587Z,2.15
2022-12-12T05:23:20.354Z,2.17
2022-12-12T05:24:20.347Z,2.17
2022-12-12T05:25:20.349Z,2.16
2022-12-12T05:26:20.329Z,2.13
2022-12-12T05:27:20.330Z,2.10
2022-12-12T05:28:20.426Z,2.09
2022-12-12T05:29:20.281Z,2.10
2022-12-12T05:30:20.251Z,2.12
2022-12-12T05:31:20.272Z,2.10
2022-12-12T05:32:20.239Z,2.08
2022-12-12T05:33:20.718Z,2.08
2022-12-12T05:34:20.235Z,2.08
2022-12-12T05:35:20.236Z,2.08
2022-12-12T05:36:20.391Z,2.06
2022-12-12T05:37:20.217Z,2.04
2022-12-12T05:38:20.538Z,2.04
2022-12-12T05:39:20.199Z,2.04
2022-12-12T05:40:20.180Z,2.04
2022-12-12T05:41:20.168Z,2.04
2022-12-12T05:42:20.149Z,2.04
2022-12-12T05:43:20.120Z,2.06
2022-12-12T05:44:20.120Z,2.04
2022-12-12T05:45:20.329Z,2.04
2022-12-12T05:46:20.140Z,2.01
2022-12-12T05:47:20.083Z,1.99
2022-12-12T05:48:24.364Z,1.99
2022-12-12T05:49:20.288Z,1.99
2022-12-12T05:50:20.053Z,2.01
2022-12-12T05:51:20.100Z,1.98
2022-12-12T05:52:20.041Z,1.97
2022-12-12T05:53:20.013Z,1.93
2022-12-12T05:54:19.985Z,1.94
2022-12-12T05:55:19.984Z,1.93
2022-12-12T05:56:19.989Z,1.93
2022-12-12T05:57:20.174Z,1.91
2022-12-12T05:58:20.020Z,1.94
2022-12-12T05:59:19.943Z,1.94
2022-12-12T06:00:19.951Z,1.94
2022-12-12T06:01:19.915Z,1.97
2022-12-12T06:02:19.963Z,1.94
2022-12-12T06:03:20.381Z,1.93
2022-12-12T06:04:19.949Z,1.94
2022-12-12T06:05:19.902Z,1.93
2022-12-12T06:06:19.846Z,1.93
2022-12-12T06:07:19.880Z,1.93
2022-12-12T06:08:24.788Z,1.94
2022-12-12T06:09:21.058Z,1.94
2022-12-12T06:10:20.029Z,1.94
2022-12-12T06:11:19.833Z,1.93
2022-12-12T06:12:19.813Z,1.93
2022-12-12T06:13:19.805Z,1.91
2022-12-12T06:14:19.758Z,1.93
2022-12-12T06:15:20.083Z,1.91
2022-12-12T06:16:19.791Z,1.90
2022-12-12T06:17:19.766Z,1.91
2022-12-12T06:18:19.716Z,1.93
2022-12-12T06:19:19.743Z,1.93
2022-12-12T06:20:19.726Z,1.90
2022-12-12T06:21:20.074Z,1.90
2022-12-12T06:22:19.853Z,1.87
2022-12-12T06:23:19.672Z,1.89
2022-12-12T06:24:19.684Z,1.89
2022-12-12T06:25:19.858Z,1.91
2022-12-12T06:26:19.636Z,1.90
2022-12-12T06:27:19.655Z,1.90
2022-12-12T06:28:19.624Z,1.94
2022-12-12T06:29:19.668Z,1.94
2022-12-12T06:30:19.917Z,1.93
2022-12-12T06:31:19.698Z,1.93
2022-12-12T06:32:19.785Z,1.91
2022-12-12T06:33:19.599Z,1.89
2022-12-12T06:34:19.555Z,1.85
2022-12-12T06:35:19.563Z,1.83
2022-12-12T06:36:19.868Z,1.85
2022-12-12T06:37:19.517Z,1.82
2022-12-12T06:38:19.698Z,1.80
2022-12-12T06:39:19.496Z,1.80
2022-12-12T06:40:19.496Z,1.78
2022-12-12T06:41:19.468Z,1.79
2022-12-12T06:42:19.476Z,1.76
2022-12-12T06:43:20.080Z,1.75
2022-12-12T06:44:19.446Z,1.73
2022-12-12T06:45:19.418Z,1.73
2022-12-12T06:46:19.478Z,1.72
2022-12-12T06:47:19.646Z,1.72
2022-12-12T06:48:19.380Z,1.71
2022-12-12T06:49:19.379Z,1.71
2022-12-12T06:50:23.712Z,1.69
2022-12-12T06:51:19.387Z,1.64
2022-12-12T06:52:19.329Z,1.64
2022-12-12T06:53:19.862Z,1.62
2022-12-12T06:54:19.310Z,1.60
2022-12-12T06:55:19.317Z,1.61
2022-12-12T06:56:19.487Z,1.58
2022-12-12T06:57:19.317Z,1.57
2022-12-12T06:58:19.260Z,1.57
2022-12-12T06:59:19.296Z,1.55
2022-12-12T07:00:19.251Z,1.52
2022-12-12T07:01:19.347Z,1.52
2022-12-12T07:02:23.275Z,1.54
2022-12-12T07:03:20.309Z,1.51
2022-12-12T07:04:19.226Z,1.50
2022-12-12T07:05:19.226Z,1.47
2022-12-12T07:06:19.198Z,1.50
2022-12-12T07:07:19.171Z,1.46
2022-12-12T07:08:19.395Z,1.47
2022-12-12T07:09:19.161Z,1.47
2022-12-12T07:10:21.398Z,1.44
2022-12-12T07:11:19.158Z,1.43
2022-12-12T07:12:19.134Z,1.43
2022-12-12T07:13:19.109Z,1.43
2022-12-12T07:14:19.319Z,1.42
2022-12-12T07:15:19.107Z,1.40
2022-12-12T07:16:19.095Z,1.39
2022-12-12T07:17:19.087Z,1.36
2022-12-12T07:18:19.066Z,1.36
2022-12-12T07:19:19.291Z,1.36
2022-12-12T07:20:19.262Z,1.36
2022-12-12T07:21:19.013Z,1.34
2022-12-12T07:22:19.020Z,1.36
2022-12-12T07:23:19.019Z,1.46
2022-12-12T07:24:19.001Z,1.51
2022-12-12T07:25:18.976Z,1.54
2022-12-12T07:26:19.325Z,1.54
2022-12-12T07:27:21.832Z,1.54
2022-12-12T07:28:18.925Z,1.55
2022-12-12T07:29:18.938Z,1.54
2022-12-12T07:30:18.930Z,1.51
2022-12-12T07:31:19.201Z,1.47
2022-12-12T07:32:18.900Z,1.46
2022-12-12T07:33:18.897Z,1.43
2022-12-12T07:34:19.233Z,1.43
2022-12-12T07:35:18.880Z,1.42
2022-12-12T07:36:18.834Z,1.39
2022-12-12T07:37:18.833Z,1.40
2022-12-12T07:38:18.841Z,1.39
2022-12-12T07:39:20.929Z,1.39
2022-12-12T07:40:18.830Z,1.37
2022-12-12T07:41:18.814Z,1.32
2022-12-12T07:42:18.767Z,1.28
2022-12-12T07:43:18.764Z,1.25
2022-12-12T07:44:18.772Z,1.24
2022-12-12T07:45:18.919Z,1.21
2022-12-12T07:46:18.851Z,1.16
2022-12-12T07:47:18.722Z,1.14
2022-12-12T07:48:18.723Z,1.14
2022-12-12T07:49:18.711Z,1.14
2022-12-12T07:50:18.711Z,1.10
2022-12-12T07:51:18.708Z,1.08
2022-12-12T07:52:18.681Z,1.08
2022-12-12T07:53:19.268Z,1.07
2022-12-12T07:54:18.626Z,1.07
2022-12-12T07:55:18.636Z,1.06
2022-12-12T07:56:18.609Z,1.06
2022-12-12T07:57:18.654Z,1.04
2022-12-12T07:58:18.598Z,1.06
2022-12-12T07:59:18.587Z,1.06
2022-12-12T08:00:18.567Z,1.04
2022-12-12T08:01:18.618Z,1.06
2022-12-12T08:02:18.603Z,1.06
2022-12-12T08:03:18.755Z,1.07
2022-12-12T08:04:18.556Z,1.06
2022-12-12T08:05:18.569Z,1.06
2022-12-12T08:06:18.528Z,1.06
2022-12-12T08:07:18.523Z,1.07
2022-12-12T08:08:18.510Z,1.06
2022-12-12T08:09:18.495Z,1.06
2022-12-12T08:10:18.454Z,1.07
2022-12-12T08:11:18.475Z,1.08
2022-12-12T08:12:18.454Z,1.08
2022-12-12T08:13:18.454Z,1.10
2022-12-12T08:14:18.415Z,1.06
2022-12-12T08:15:18.652Z,1.06
2022-12-12T08:16:18.524Z,1.06
2022-12-12T08:17:18.370Z,1.06
2022-12-12T08:18:18.407Z,1.04
2022-12-12T08:19:18.346Z,1.07
2022-12-12T08:20:18.355Z,1.08
2022-12-12T08:21:24.818Z,1.10
2022-12-12T08:22:19.327Z,1.10
2022-12-12T08:23:18.305Z,1.10
2022-12-12T08:24:18.354Z,1.10
2022-12-12T08:25:18.325Z,1.12
2022-12-12T08:26:18.526Z,1.10
2022-12-12T08:27:18.249Z,1.12
2022-12-12T08:28:18.309Z,1.12
2022-12-12T08:29:18.259Z,1.14
2022-12-12T08:30:18.289Z,1.16
2022-12-12T08:31:18.442Z,1.15
2022-12-12T08:32:18.228Z,1.15
2022-12-12T08:33:18.228Z,1.15
2022-12-12T08:34:18.216Z,1.16
2022-12-12T08:35:18.216Z,1.16
2022-12-12T08:36:18.208Z,1.21
2022-12-12T08:37:18.197Z,1.22
2022-12-12T08:38:18.147Z,1.25
2022-12-12T08:39:18.150Z,1.28
2022-12-12T08:40:18.141Z,1.29
2022-12-12T08:41:18.261Z,1.29
2022-12-12T08:42:18.112Z,1.29
2022-12-12T08:43:18.137Z,1.26
2022-12-12T08:44:18.098Z,1.28
2022-12-12T08:45:18.117Z,1.26
2022-12-12T08:46:18.745Z,1.25
2022-12-12T08:47:18.307Z,1.22
2022-12-12T08:48:18.070Z,1.22
2022-12-12T08:49:18.030Z,1.22
2022-12-12T08:50:18.022Z,1.22
2022-12-12T08:51:17.990Z,1.22
2022-12-12T08:52:17.981Z,1.24
2022-12-12T08:53:18.274Z,1.24
2022-12-12T08:54:17.986Z,1.24
2022-12-12T08:55:17.939Z,1.25
2022-12-12T08:56:17.940Z,1.26
2022-12-12T08:57:22.744Z,1.26
2022-12-12T08:58:19.158Z,1.26
2022-12-12T08:59:17.897Z,1.26
2022-12-12T09:00:17.929Z,1.26
2022-12-12T09:01:17.950Z,1.26
2022-12-12T09:02:17.943Z,1.25
2022-12-12T09:03:17.862Z,1.25
2022-12-12T09:04:18.192Z,1.24
2022-12-12T09:05:17.851Z,1.22
2022-12-12T09:06:17.841Z,1.22
2022-12-12T09:07:17.824Z,1.24
2022-12-12T09:08:17.855Z,1.26
2022-12-12T09:09:17.778Z,1.26
2022-12-12T09:10:17.814Z,1.26
2022-12-12T09:11:17.766Z,1.32
2022-12-12T09:12:17.771Z,1.33
2022-12-12T09:13:17.777Z,1.33
2022-12-12T09:14:18.152Z,1.34
2022-12-12T09:15:17.737Z,1.33
2022-12-12T09:16:17.809Z,1.34
2022-12-12T09:17:17.711Z,1.36
2022-12-12T09:18:17.720Z,1.40
2022-12-12T09:19:17.866Z,1.42
2022-12-12T09:20:17.702Z,1.44
2022-12-12T09:21:17.664Z,1.44
2022-12-12T09:22:17.647Z,1.50
2022-12-12T09:23:17.670Z,1.47
2022-12-12T09:24:17.962Z,1.46
2022-12-12T09:25:17.652Z,1.43
2022-12-12T09:26:17.597Z,1.46
2022-12-12T09:27:17.577Z,1.47
2022-12-12T09:28:17.774Z,1.44
2022-12-12T09:29:17.553Z,1.39
2022-12-12T09:30:17.590Z,1.34
2022-12-12T09:31:17.790Z,1.33
2022-12-12T09:32:22.747Z,1.34
2022-12-12T09:33:18.505Z,1.40
2022-12-12T09:34:17.508Z,1.42
2022-12-12T09:35:17.486Z,1.43
2022-12-12T09:36:17.516Z,1.44
2022-12-12T09:37:17.457Z,1.47
2022-12-12T09:38:17.466Z,1.47
2022-12-12T09:39:17.437Z,1.47
2022-12-12T09:40:17.456Z,1.46
2022-12-12T09:41:17.440Z,1.50
2022-12-12T09:42:17.453Z,1.50
2022-12-12T09:43:17.445Z,1.52
2022-12-12T09:44:17.653Z,1.60
2022-12-12T09:45:17.367Z,1.64
2022-12-12T09:46:17.645Z,1.69
2022-12-12T09:47:17.378Z,1.75
2022-12-12T09:48:17.360Z,1.73
2022-12-12T09:49:17.337Z,1.75
2022-12-12T09:50:17.343Z,1.73
2022-12-12T09:51:17.333Z,1.75
2022-12-12T09:52:17.684Z,1.69
2022-12-12T09:53:17.324Z,1.65
2022-12-12T09:54:17.304Z,1.65
2022-12-12T09:55:17.286Z,1.64
2022-12-12T09:56:17.284Z,1.65
2022-12-12T09:57:17.242Z,1.69
2022-12-12T09:58:17.283Z,1.73
2022-12-12T09:59:17.214Z,1.79
2022-12-12T10:00:17.466Z,1.85
2022-12-12T10:01:17.258Z,1.97
2022-12-12T10:02:17.232Z,2.01
2022-12-12T10:03:17.413Z,2.04
2022-12-12T10:04:17.195Z,2.09
2022-12-12T10:05:17.172Z,2.12
2022-12-12T10:07:18.367Z,2.15
2022-12-12T10:08:17.186Z,2.13
2022-12-12T10:09:17.099Z,2.15
2022-12-12T10:10:17.117Z,2.15
2022-12-12T10:11:17.093Z,2.13
2022-12-12T10:12:17.080Z,2.13
2022-12-12T10:13:17.342Z,2.17
2022-12-12T10:14:17.088Z,2.17
2022-12-12T10:15:17.066Z,2.17
2022-12-12T10:16:17.082Z,2.22
2022-12-12T10:17:17.011Z,2.28
2022-12-12T10:18:17.220Z,2.34
2022-12-12T10:19:17.008Z,2.44
2022-12-12T10:20:17.017Z,2.51
2022-12-12T10:21:16.971Z,2.55
2022-12-12T10:22:16.967Z,2.59
2022-12-12T10:23:16.962Z,2.64
2022-12-12T10:24:17.438Z,2.64
2022-12-12T10:25:16.922Z,2.66
2022-12-12T10:26:16.922Z,2.67
2022-12-12T10:27:16.891Z,2.70
2022-12-12T10:28:17.233Z,2.70
2022-12-12T10:29:17.228Z,2.71
2022-12-12T10:30:16.908Z,2.70
2022-12-12T10:31:24.149Z,2.58
2022-12-12T10:32:16.852Z,2.58
2022-12-12T10:33:16.871Z,2.63
2022-12-12T10:34:16.852Z,2.71
2022-12-12T10:35:22.584Z,2.79
2022-12-12T10:36:17.828Z,2.88
2022-12-12T10:37:17.138Z,2.92
2022-12-12T10:38:16.812Z,2.95
2022-12-12T10:39:16.758Z,3.05
2022-12-12T10:40:17.123Z,3.07
2022-12-12T10:41:16.768Z,3.12
2022-12-12T10:42:16.751Z,3.12
2022-12-12T10:43:16.762Z,3.13
2022-12-12T10:44:16.707Z,3.18
2022-12-12T10:45:16.921Z,3.27
2022-12-12T10:46:16.825Z,3.28
2022-12-12T10:47:16.665Z,3.34
2022-12-12T10:48:16.681Z,3.44
2022-12-12T10:49:16.635Z,3.50
2022-12-12T10:50:16.662Z,3.58
2022-12-12T10:51:16.815Z,3.65
2022-12-12T10:52:16.643Z,3.68
2022-12-12T10:53:16.639Z,3.75
2022-12-12T10:54:16.622Z,3.79
2022-12-12T10:55:16.580Z,3.85
2022-12-12T10:56:16.592Z,3.92
2022-12-12T10:57:20.280Z,3.96
2022-12-12T10:58:16.747Z,3.98
2022-12-12T10:59:16.526Z,3.98
2022-12-12T11:00:16.550Z,3.97
2022-12-12T11:01:16.521Z,4.00
2022-12-12T11:02:16.603Z,4.01
2022-12-12T11:03:16.726Z,4.03
2022-12-12T11:04:16.484Z,4.03
2022-12-12T11:05:16.669Z,4.06
2022-12-12T11:06:16.484Z,4.07
2022-12-12T11:07:16.456Z,4.14
2022-12-12T11:08:16.689Z,4.15
2022-12-12T11:09:16.435Z,4.16
2022-12-12T11:10:16.407Z,4.15
2022-12-12T11:11:16.416Z,4.19
2022-12-12T11:12:16.414Z,4.19
2022-12-12T11:13:16.397Z,4.21
2022-12-12T11:14:16.367Z,4.24
2022-12-12T11:15:16.379Z,4.25
2022-12-12T11:16:16.375Z,4.28
2022-12-12T11:17:16.318Z,4.28
2022-12-12T11:18:16.349Z,4.28
2022-12-12T11:19:16.323Z,4.28
2022-12-12T11:20:16.300Z,4.26
2022-12-12T11:21:16.301Z,4.25
2022-12-12T11:22:16.269Z,4.28
2022-12-12T11:23:18.326Z,4.28
2022-12-12T11:24:16.719Z,4.29
2022-12-12T11:25:16.246Z,4.25
2022-12-12T11:26:16.437Z,4.28
2022-12-12T11:27:16.227Z,4.33
2022-12-12T11:28:16.246Z,4.34
2022-12-12T11:29:16.206Z,4.34
2022-12-12T11:30:16.233Z,4.36
2022-12-12T11:31:16.203Z,4.25
2022-12-12T11:32:16.531Z,4.28
2022-12-12T11:33:16.407Z,4.33
2022-12-12T11:34:16.142Z,4.34
2022-12-12T11:35:16.177Z,4.36
2022-12-12T11:36:16.119Z,4.40
2022-12-12T11:37:16.118Z,4.44
2022-12-12T11:38:16.116Z,4.46
2022-12-12T11:39:16.445Z,4.51
2022-12-12T11:40:16.134Z,4.52
2022-12-12T11:41:16.251Z,4.54
2022-12-12T11:42:16.043Z,4.58
2022-12-12T11:43:16.031Z,4.59
2022-12-12T11:44:20.117Z,4.61
2022-12-12T11:45:16.188Z,4.62
2022-12-12T11:46:16.410Z,4.65
2022-12-12T11:47:15.972Z,4.67
2022-12-12T11:48:16.003Z,4.69
2022-12-12T11:49:16.302Z,4.65
2022-12-12T11:50:16.053Z,4.65
2022-12-12T11:51:15.950Z,4.69
2022-12-12T11:52:15.958Z,4.69
2022-12-12T11:53:15.942Z,4.69
2022-12-12T11:54:16.514Z,4.69
2022-12-12T11:55:16.249Z,4.73
2022-12-12T11:56:15.883Z,4.70
2022-12-12T11:57:15.863Z,4.72
2022-12-12T11:58:15.862Z,4.73
2022-12-12T11:59:16.154Z,4.76
2022-12-12T12:00:15.968Z,4.76
2022-12-12T12:01:15.840Z,4.76
2022-12-12T12:02:15.840Z,4.76
2022-12-12T12:03:15.881Z,4.83
2022-12-12T12:04:15.815Z,4.86
2022-12-12T12:05:16.301Z,4.89
2022-12-12T12:06:15.792Z,4.89
2022-12-12T12:07:15.745Z,4.80
2022-12-12T12:08:15.830Z,4.79
2022-12-12T12:09:15.728Z,4.79
2022-12-12T12:10:19.668Z,4.83
2022-12-12T12:11:16.897Z,4.80
2022-12-12T12:12:15.737Z,4.79
2022-12-12T12:13:16.006Z,4.62
2022-12-12T12:14:15.705Z,4.62
2022-12-12T12:15:15.943Z,4.65
2022-12-12T12:16:15.679Z,4.69
2022-12-12T12:17:15.666Z,4.65
2022-12-12T12:18:15.634Z,4.58
2022-12-12T12:19:15.827Z,4.46
2022-12-12T12:20:15.608Z,4.33
2022-12-12T12:21:15.589Z,4.28
2022-12-12T12:22:15.614Z,4.33
2022-12-12T12:23:15.614Z,4.18
2022-12-12T12:24:15.557Z,4.03
2022-12-12T12:25:16.278Z,4.04
2022-12-12T12:26:15.539Z,4.04
2022-12-12T12:27:15.763Z,3.96
2022-12-12T12:28:15.538Z,3.85
2022-12-12T12:29:15.517Z,3.79
2022-12-12T12:30:15.488Z,3.79
2022-12-12T12:31:15.564Z,3.76
2022-12-12T12:32:15.498Z,3.75
2022-12-12T12:33:15.537Z,3.72
2022-12-12T12:34:15.438Z,3.79
2022-12-12T12:35:15.625Z,3.75
2022-12-12T12:36:20.926Z,3.67
2022-12-12T12:37:16.444Z,3.62
2022-12-12T12:38:15.640Z,3.62
2022-12-12T12:39:15.398Z,3.54
2022-12-12T12:40:15.396Z,3.54
2022-12-12T12:41:15.369Z,3.46
2022-12-12T12:42:15.376Z,3.36
2022-12-12T12:43:15.600Z,3.28
2022-12-12T12:44:15.346Z,3.18
2022-12-12T12:45:15.714Z,3.15
2022-12-12T12:46:15.324Z,3.20
2022-12-12T12:47:15.520Z,3.18
2022-12-12T12:48:15.280Z,3.23
2022-12-12T12:49:15.298Z,3.27
2022-12-12T12:50:15.599Z,3.28
2022-12-12T12:51:15.253Z,3.33
2022-12-12T12:52:15.233Z,3.28
2022-12-12T12:53:15.583Z,3.24
2022-12-12T12:54:15.229Z,3.20
2022-12-12T12:55:15.437Z,3.23
2022-12-12T12:56:15.209Z,3.25
2022-12-12T12:57:15.208Z,3.25
2022-12-12T12:58:15.454Z,3.25
2022-12-12T12:59:15.163Z,3.25
2022-12-12T13:00:15.617Z,3.24
2022-12-12T13:01:15.205Z,3.24
2022-12-12T13:02:15.224Z,3.21
2022-12-12T13:03:15.189Z,3.24
2022-12-12T13:04:15.303Z,3.21
2022-12-12T13:05:15.118Z,3.18
2022-12-12T13:06:15.410Z,3.23
2022-12-12T13:07:15.075Z,3.27
2022-12-12T13:08:15.184Z,3.31
2022-12-12T13:09:15.053Z,3.33
2022-12-12T13:10:15.514Z,3.39
2022-12-12T13:11:15.034Z,3.42
2022-12-12T13:12:15.341Z,3.46
2022-12-12T13:13:15.006Z,3.50
2022-12-12T13:14:14.988Z,3.54
2022-12-12T13:15:14.977Z,3.58
2022-12-12T13:16:15.032Z,3.62
2022-12-12T13:17:15.155Z,3.68
2022-12-12T13:18:14.984Z,3.71
2022-12-12T13:19:14.926Z,3.78